createdAt,value
2022-08-10T00:00:38.292Z,80.60
2022-08-10T00:03:07.774Z,81.20
2022-08-10T00:05:43.837Z,81.30
2022-08-10T00:08:24.091Z,81.40
2022-08-10T00:10:56.159Z,81.60
2022-08-10T00:13:24.621Z,81.70
2022-08-10T00:15:54.980Z,82.20
2022-08-10T00:18:34.563Z,82.30
2022-08-10T00:21:07.561Z,82.60
2022-08-10T00:23:35.367Z,82.70
2022-08-10T00:26:02.666Z,82.70
2022-08-10T00:28:29.849Z,83.20
2022-08-10T00:30:56.943Z,83.40
2022-08-10T00:33:23.992Z,83.70
2022-08-10T00:35:51.209Z,83.50
2022-08-10T00:38:18.732Z,83.70
2022-08-10T00:40:46.230Z,84.00
2022-08-10T00:43:13.207Z,83.80
2022-08-10T00:45:40.149Z,84.30
2022-08-10T00:48:07.178Z,84.10
2022-08-10T00:50:34.437Z,84.30
2022-08-10T00:53:05.723Z,84.60
2022-08-10T00:55:33.368Z,84.50
2022-08-10T00:58:20.853Z,85.00
2022-08-10T01:00:48.334Z,85.40
2022-08-10T01:03:15.440Z,85.80
2022-08-10T01:05:51.956Z,85.90
2022-08-10T01:08:57.523Z,86.10
2022-08-10T01:11:42.342Z,86.50
2022-08-10T01:14:41.073Z,86.80
2022-08-10T01:17:22.039Z,87.00
2022-08-10T01:20:12.558Z,87.30
2022-08-10T01:23:18.427Z,87.80
2022-08-10T01:26:12.230Z,88.00
2022-08-10T01:28:48.566Z,88.60
2022-08-10T01:31:21.309Z,88.70
2022-08-10T01:33:58.610Z,88.80
2022-08-10T01:36:36.480Z,89.20
2022-08-10T01:39:06.331Z,90.20
2022-08-10T01:41:45.864Z,90.20
2022-08-10T01:44:33.893Z,90.20
2022-08-10T01:47:24.324Z,90.50
2022-08-10T01:50:05.290Z,90.60
2022-08-10T01:52:34.848Z,91.00
2022-08-10T01:55:01.972Z,91.10
2022-08-10T01:57:32.751Z,91.40
2022-08-10T02:00:03.356Z,91.50
2022-08-10T02:02:36.505Z,91.90
2022-08-10T02:05:06.323Z,92.10
2022-08-10T02:07:37.759Z,92.50
2022-08-10T02:10:10.754Z,92.50
2022-08-10T02:12:39.482Z,92.80
2022-08-10T02:15:10.474Z,93.10
2022-08-10T02:17:57.656Z,93.70
2022-08-10T02:20:31.446Z,94.20
2022-08-10T02:23:22.727Z,94.80
2022-08-10T02:25:51.072Z,95.40
2022-08-10T02:28:27.069Z,96.30
2022-08-10T02:31:02.850Z,97.00
2022-08-10T02:33:30.453Z,97.80
2022-08-10T02:36:00.461Z,98.70
2022-08-10T02:38:58.564Z,99.70
2022-08-10T02:45:02.153Z,99.90
2022-08-10T02:45:21.464Z,99.90
2022-08-10T02:47:58.718Z,99.90
2022-08-10T02:50:27.365Z,99.90
2022-08-10T02:53:01.714Z,99.90
2022-08-10T02:55:42.778Z,99.90
2022-08-10T02:58:18.059Z,99.90
2022-08-10T03:00:53.410Z,99.90
2022-08-10T03:03:25.249Z,99.90
2022-08-10T03:06:00.405Z,99.90
2022-08-10T03:08:32.204Z,99.90
2022-08-10T03:11:03.111Z,99.90
2022-08-10T03:13:32.279Z,99.90
2022-08-10T03:16:01.545Z,99.90
2022-08-10T03:18:34.046Z,99.90
2022-08-10T03:21:03.393Z,99.90
2022-08-10T03:23:50.545Z,99.90
2022-08-10T03:26:20.538Z,99.90
2022-08-10T03:28:48.821Z,99.90
2022-08-10T03:31:20.407Z,99.90
2022-08-10T03:33:48.986Z,99.90
2022-08-10T03:36:45.062Z,99.90
2022-08-10T03:39:13.633Z,99.90
2022-08-10T03:41:53.624Z,99.90
2022-08-10T03:44:32.797Z,99.90
2022-08-10T03:47:16.208Z,99.90
2022-08-10T03:49:47.442Z,99.90
2022-08-10T03:52:15.646Z,99.90
2022-08-10T03:54:43.327Z,99.90
2022-08-10T03:57:10.846Z,99.90
2022-08-10T03:59:38.262Z,99.90
2022-08-10T04:02:41.887Z,99.90
2022-08-10T04:04:53.243Z,99.90
2022-08-10T04:07:20.606Z,99.90
2022-08-10T04:09:54.249Z,99.90
2022-08-10T04:12:23.156Z,99.90
2022-08-10T04:14:52.968Z,99.90
2022-08-10T04:17:57.136Z,99.90
2022-08-10T04:20:34.713Z,99.90
2022-08-10T04:23:08.246Z,99.90
2022-08-10T04:25:37.660Z,99.90
2022-08-10T04:28:05.171Z,99.90
2022-08-10T04:30:34.846Z,99.90
2022-08-10T04:33:03.567Z,99.90
2022-08-10T04:35:31.936Z,99.90
2022-08-10T04:38:00.510Z,99.90
2022-08-10T04:40:30.146Z,99.90
2022-08-10T04:43:12.372Z,99.90
2022-08-10T04:45:49.889Z,99.90
2022-08-10T04:48:40.839Z,99.90
2022-08-10T04:51:10.810Z,99.90
2022-08-10T04:54:04.308Z,99.90
2022-08-10T04:56:32.053Z,99.90
2022-08-10T04:59:00.857Z,99.90
2022-08-10T05:02:21.177Z,99.90
2022-08-10T05:04:35.363Z,99.90
2022-08-10T05:07:03.449Z,99.90
2022-08-10T05:09:30.252Z,99.90
2022-08-10T05:11:57.046Z,99.90
2022-08-10T05:14:23.886Z,99.90
2022-08-10T05:16:50.724Z,99.90
2022-08-10T05:19:18.801Z,99.90
2022-08-10T05:22:05.169Z,99.90
2022-08-10T05:24:32.409Z,99.90
2022-08-10T05:27:09.256Z,99.90
2022-08-10T05:29:37.542Z,99.90
2022-08-10T05:32:04.894Z,99.90
2022-08-10T05:34:31.737Z,99.90
2022-08-10T05:36:58.730Z,99.90
2022-08-10T05:39:31.822Z,99.90
2022-08-10T05:42:01.705Z,99.90
2022-08-10T05:44:29.937Z,99.90
2022-08-10T05:46:57.016Z,99.90
2022-08-10T05:49:24.677Z,99.90
2022-08-10T05:51:52.204Z,99.90
2022-08-10T05:54:20.521Z,99.90
2022-08-10T05:56:56.745Z,99.90
2022-08-10T06:00:31.106Z,99.90
2022-08-10T06:02:35.318Z,99.90
2022-08-10T06:05:19.187Z,99.90
2022-08-10T06:07:54.846Z,99.90
2022-08-10T06:10:31.345Z,99.90
2022-08-10T06:13:30.658Z,99.90
2022-08-10T06:16:07.031Z,99.90
2022-08-10T06:18:34.336Z,99.90
2022-08-10T06:21:02.248Z,99.90
2022-08-10T06:23:30.855Z,99.90
2022-08-10T06:26:12.213Z,99.90
2022-08-10T06:29:02.749Z,99.90
2022-08-10T06:31:48.009Z,99.90
2022-08-10T06:34:20.633Z,99.90
2022-08-10T06:36:48.988Z,99.90
2022-08-10T06:39:32.839Z,99.90
2022-08-10T06:42:17.958Z,99.90
2022-08-10T06:45:12.090Z,99.90
2022-08-10T06:47:41.820Z,98.30
2022-08-10T06:50:34.451Z,97.20
2022-08-10T06:53:07.811Z,97.20
2022-08-10T06:55:50.058Z,95.50
2022-08-10T06:58:26.709Z,94.80
2022-08-10T07:00:56.628Z,94.80
2022-08-10T07:03:31.664Z,93.50
2022-08-10T07:06:00.575Z,93.10
2022-08-10T07:08:31.590Z,92.90
2022-08-10T07:10:59.341Z,91.40
2022-08-10T07:14:16.999Z,90.50
2022-08-10T07:16:16.451Z,90.00
2022-08-10T07:18:47.273Z,89.00
2022-08-10T07:21:15.094Z,88.30
2022-08-10T07:23:57.273Z,86.20
2022-08-10T07:26:28.856Z,84.40
2022-08-10T07:28:56.960Z,85.20
2022-08-10T07:31:29.656Z,84.70
2022-08-10T07:34:28.877Z,82.30
2022-08-10T07:37:02.891Z,79.40
2022-08-10T07:40:02.852Z,78.60
2022-08-10T07:42:27.490Z,78.20
2022-08-10T07:44:58.349Z,76.70
2022-08-10T07:47:53.929Z,76.50
2022-08-10T07:50:21.198Z,75.90
2022-08-10T07:52:49.633Z,75.40
2022-08-10T07:55:19.649Z,74.20
2022-08-10T07:58:07.365Z,74.30
2022-08-10T08:00:34.910Z,72.20
2022-08-10T08:03:03.713Z,71.10
2022-08-10T08:05:57.940Z,71.50
2022-08-10T08:08:22.668Z,70.00
2022-08-10T08:10:50.731Z,69.00
2022-08-10T08:13:22.746Z,68.90
2022-08-10T08:16:17.330Z,68.40
2022-08-10T08:18:45.718Z,67.40
2022-08-10T08:24:30.561Z,66.90
2022-08-10T08:24:32.394Z,65.70
2022-08-10T08:27:04.915Z,63.50
2022-08-10T08:29:35.190Z,62.40
2022-08-10T08:32:04.480Z,62.60
2022-08-10T08:34:37.984Z,62.80
2022-08-10T08:37:08.350Z,62.30
2022-08-10T08:39:37.476Z,61.00
2022-08-10T08:42:18.353Z,60.50
2022-08-10T08:45:00.626Z,56.80
2022-08-10T08:50:36.550Z,56.40
2022-08-10T08:54:02.934Z,55.00
2022-08-10T08:56:48.194Z,55.80
2022-08-10T08:59:43.626Z,55.00
2022-08-10T09:02:28.974Z,54.40
2022-08-10T09:05:24.147Z,54.50
2022-08-10T09:08:14.815Z,53.30
2022-08-10T09:10:50.290Z,53.40
2022-08-10T09:13:32.170Z,52.90
2022-08-10T09:16:22.834Z,52.40
2022-08-10T09:19:36.601Z,51.40
2022-08-10T09:22:26.076Z,51.00
2022-08-10T09:25:07.956Z,50.70
2022-08-10T09:27:43.292Z,49.70
2022-08-10T09:30:16.302Z,50.30
2022-08-10T09:36:17.095Z,50.90
2022-08-10T09:36:19.794Z,50.60
2022-08-10T09:40:56.531Z,49.70
2022-08-10T09:42:39.360Z,51.10
2022-08-10T09:45:15.766Z,50.90
2022-08-10T09:48:03.041Z,51.50
2022-08-10T09:51:05.464Z,49.20
2022-08-10T09:53:44.436Z,48.80
2022-08-10T09:56:36.274Z,49.20
2022-08-10T10:00:00.585Z,47.50
2022-08-10T10:02:28.803Z,47.80
2022-08-10T10:05:03.095Z,49.80
2022-08-10T10:07:29.957Z,48.20
2022-08-10T10:10:26.691Z,48.80
2022-08-10T10:12:56.949Z,50.00
2022-08-10T10:15:52.585Z,48.10
2022-08-10T10:18:31.373Z,47.60
2022-08-10T10:21:10.022Z,49.90
2022-08-10T10:24:22.394Z,49.30
2022-08-10T10:27:16.211Z,48.00
2022-08-10T10:30:02.377Z,48.10
2022-08-10T10:32:37.871Z,48.10
2022-08-10T10:35:42.857Z,47.30
2022-08-10T10:38:13.382Z,46.40
2022-08-10T10:40:55.433Z,47.00
2022-08-10T10:43:36.139Z,47.30
2022-08-10T10:46:05.186Z,46.40
2022-08-10T10:48:55.531Z,46.60
2022-08-10T10:51:26.587Z,47.30
2022-08-10T10:54:07.964Z,45.40
2022-08-10T10:56:46.790Z,46.00
2022-08-10T10:59:54.959Z,44.50
2022-08-10T11:02:59.722Z,43.30
2022-08-10T11:05:42.856Z,43.50
2022-08-10T11:08:18.514Z,44.40
2022-08-10T11:10:58.684Z,43.70
2022-08-10T11:14:25.316Z,44.10
2022-08-10T11:17:03.343Z,43.00
2022-08-10T11:20:01.236Z,43.60
2022-08-10T11:22:42.340Z,43.30
2022-08-10T11:25:15.247Z,44.10
2022-08-10T11:27:42.013Z,44.50
2022-08-10T11:30:13.287Z,43.40
2022-08-10T11:32:56.822Z,42.50
2022-08-10T11:35:34.935Z,43.40
2022-08-10T11:38:31.119Z,43.70
2022-08-10T11:42:10.149Z,43.70
2022-08-10T11:44:20.593Z,43.90
2022-08-10T11:46:56.936Z,42.30
2022-08-10T11:49:32.085Z,42.50
2022-08-10T11:52:06.520Z,42.80
2022-08-10T11:54:51.798Z,42.80
2022-08-10T11:57:19.624Z,43.40
2022-08-10T11:59:58.247Z,42.50
2022-08-10T12:02:39.941Z,43.10
2022-08-10T12:05:11.011Z,41.70
2022-08-10T12:08:54.982Z,43.00
2022-08-10T12:10:40.830Z,42.70
2022-08-10T12:13:22.233Z,42.80
2022-08-10T12:16:05.742Z,41.80
2022-08-10T12:18:46.364Z,40.10
2022-08-10T12:21:22.224Z,39.60
2022-08-10T12:24:03.301Z,40.40
2022-08-10T12:26:45.880Z,40.90
2022-08-10T12:29:37.263Z,40.70
2022-08-10T12:32:29.465Z,40.30
2022-08-10T12:35:40.127Z,39.40
2022-08-10T12:38:30.001Z,39.00
2022-08-10T12:41:05.037Z,39.10
2022-08-10T12:44:05.187Z,39.20
2022-08-10T12:46:36.800Z,40.20
2022-08-10T12:49:09.276Z,39.60
2022-08-10T12:51:49.464Z,37.80
2022-08-10T12:54:31.971Z,38.00
2022-08-10T12:57:08.871Z,37.80
2022-08-10T12:59:43.505Z,40.10
2022-08-10T13:02:19.410Z,39.60
2022-08-10T13:04:51.877Z,37.30
2022-08-10T13:08:03.957Z,37.30
2022-08-10T13:10:18.208Z,38.00
2022-08-10T13:12:48.899Z,39.20
2022-08-10T13:15:28.147Z,38.60
2022-08-10T13:18:18.767Z,39.60
2022-08-10T13:20:51.505Z,39.50
2022-08-10T13:23:26.890Z,39.00
2022-08-10T13:25:56.791Z,39.10
2022-08-10T13:28:35.491Z,39.30
2022-08-10T13:31:07.328Z,39.30
2022-08-10T13:34:39.032Z,39.30
2022-08-10T13:36:30.909Z,39.90
2022-08-10T13:38:59.831Z,38.70
2022-08-10T13:41:35.257Z,38.60
2022-08-10T13:44:02.196Z,38.30
2022-08-10T13:46:29.719Z,39.80
2022-08-10T13:48:59.727Z,40.20
2022-08-10T13:51:53.873Z,39.00
2022-08-10T13:54:18.846Z,38.30
2022-08-10T13:56:47.807Z,39.10
2022-08-10T13:59:16.510Z,39.30
2022-08-10T14:01:50.226Z,39.90
2022-08-10T14:04:19.361Z,40.40
2022-08-10T14:06:54.384Z,40.40
2022-08-10T14:09:29.877Z,40.30
2022-08-10T14:11:58.805Z,41.40
2022-08-10T14:14:27.877Z,40.40
2022-08-10T14:16:57.202Z,40.00
2022-08-10T14:19:31.575Z,39.10
2022-08-10T14:22:05.711Z,39.70
2022-08-10T14:24:34.663Z,40.40
2022-08-10T14:27:11.609Z,39.60
2022-08-10T14:29:49.449Z,40.40
2022-08-10T14:32:18.963Z,39.40
2022-08-10T14:36:05.045Z,39.90
2022-08-10T14:38:10.555Z,39.90
2022-08-10T14:40:43.919Z,41.20
2022-08-10T14:43:28.695Z,40.40
2022-08-10T14:46:05.643Z,39.70
2022-08-10T14:48:41.649Z,40.10
2022-08-10T14:51:12.809Z,40.60
2022-08-10T14:53:44.325Z,41.20
2022-08-10T14:56:15.306Z,42.10
2022-08-10T14:59:05.602Z,42.20
2022-08-10T15:02:00.109Z,41.80
2022-08-10T15:04:28.379Z,41.70
2022-08-10T15:07:02.423Z,40.40
2022-08-10T15:09:59.510Z,40.00
2022-08-10T15:12:27.078Z,40.90
2022-08-10T15:14:58.541Z,41.70
2022-08-10T15:17:35.000Z,41.20
2022-08-10T15:20:20.414Z,41.10
2022-08-10T15:23:29.760Z,41.40
2022-08-10T15:26:10.628Z,42.10
2022-08-10T15:29:22.891Z,42.50
2022-08-10T15:31:34.544Z,42.10
2022-08-10T15:34:22.770Z,41.90
2022-08-10T15:37:40.794Z,42.50
2022-08-10T15:40:26.127Z,42.00
2022-08-10T15:43:24.439Z,41.90
2022-08-10T15:46:15.772Z,42.50
2022-08-10T15:48:48.480Z,42.70
2022-08-10T15:51:53.792Z,43.10
2022-08-10T15:54:33.814Z,43.30
2022-08-10T15:57:09.508Z,44.30
2022-08-10T15:59:47.561Z,43.90
2022-08-10T16:02:25.345Z,44.30
2022-08-10T16:06:00.215Z,44.10
2022-08-10T16:08:26.769Z,44.20
2022-08-10T16:11:05.720Z,43.60
2022-08-10T16:13:59.806Z,43.40
2022-08-10T16:16:34.875Z,43.80
2022-08-10T16:19:22.322Z,43.80
2022-08-10T16:22:02.263Z,44.80
2022-08-10T16:24:36.943Z,44.60
2022-08-10T16:27:07.524Z,44.50
2022-08-10T16:29:55.712Z,45.10
2022-08-10T16:32:25.379Z,45.40
2022-08-10T16:34:53.867Z,45.00
2022-08-10T16:37:22.228Z,45.40
2022-08-10T16:40:01.031Z,45.10
2022-08-10T16:42:44.988Z,45.30
2022-08-10T16:45:17.555Z,45.00
2022-08-10T16:47:48.092Z,45.20
2022-08-10T16:50:22.186Z,45.40
2022-08-10T16:53:07.764Z,46.20
2022-08-10T16:55:49.042Z,46.10
2022-08-10T16:58:22.248Z,45.90
2022-08-10T17:00:51.449Z,47.40
2022-08-10T17:04:07.745Z,48.10
2022-08-10T17:06:22.720Z,48.30
2022-08-10T17:08:53.628Z,48.40
2022-08-10T17:11:27.152Z,48.70
2022-08-10T17:13:58.818Z,49.10
2022-08-10T17:16:35.168Z,48.60
2022-08-10T17:19:03.566Z,48.30
2022-08-10T17:21:51.111Z,48.50
2022-08-10T17:24:26.577Z,48.50
2022-08-10T17:26:57.135Z,48.90
2022-08-10T17:29:59.050Z,49.10
2022-08-10T17:32:30.503Z,49.20
2022-08-10T17:35:01.757Z,49.60
2022-08-10T17:37:33.302Z,50.20
2022-08-10T17:40:07.987Z,49.80
2022-08-10T17:42:38.424Z,49.90
2022-08-10T17:45:06.958Z,50.00
2022-08-10T17:47:34.927Z,50.10
2022-08-10T17:50:03.015Z,50.60
2022-08-10T17:52:32.440Z,50.50
2022-08-10T17:55:06.713Z,50.60
2022-08-10T17:57:36.690Z,51.00
2022-08-10T18:00:06.097Z,51.20
2022-08-10T18:02:37.301Z,51.20
2022-08-10T18:05:08.246Z,51.70
2022-08-10T18:07:40.345Z,52.10
2022-08-10T18:10:14.398Z,51.80
2022-08-10T18:12:44.727Z,51.90
2022-08-10T18:15:15.840Z,51.90
2022-08-10T18:17:49.418Z,52.00
2022-08-10T18:20:19.990Z,52.30
2022-08-10T18:22:55.884Z,52.60
2022-08-10T18:25:26.957Z,52.90
2022-08-10T18:28:01.156Z,52.80
2022-08-10T18:30:36.803Z,53.40
2022-08-10T18:33:08.533Z,54.00
2022-08-10T18:35:36.283Z,54.50
2022-08-10T18:38:04.752Z,54.90
2022-08-10T18:40:36.219Z,54.80
2022-08-10T18:44:06.268Z,54.70
2022-08-10T18:45:57.014Z,55.40
2022-08-10T18:48:33.985Z,55.40
2022-08-10T18:51:06.232Z,55.70
2022-08-10T18:53:50.806Z,55.80
2022-08-10T18:56:20.713Z,55.90
2022-08-10T18:58:47.497Z,56.10
2022-08-10T19:01:32.093Z,56.40
2022-08-10T19:04:22.927Z,56.80
2022-08-10T19:07:22.916Z,56.90
2022-08-10T19:09:49.732Z,57.30
2022-08-10T19:12:35.765Z,57.30
2022-08-10T19:15:15.927Z,57.40
2022-08-10T19:18:03.795Z,57.70
2022-08-10T19:20:40.604Z,58.20
2022-08-10T19:23:29.933Z,58.40
2022-08-10T19:26:38.142Z,58.70
2022-08-10T19:30:08.004Z,59.20
2022-08-10T19:32:26.677Z,59.50
2022-08-10T19:35:15.542Z,59.80
2022-08-10T19:37:45.132Z,60.00
2022-08-10T19:40:43.865Z,59.90
2022-08-10T19:44:01.379Z,59.90
2022-08-10T19:46:42.336Z,59.80
2022-08-10T19:49:27.071Z,59.80
2022-08-10T19:52:10.694Z,59.80
2022-08-10T19:54:53.076Z,59.80
2022-08-10T19:57:36.591Z,60.00
2022-08-10T20:00:20.567Z,60.90
2022-08-10T20:03:11.912Z,60.60
2022-08-10T20:06:18.557Z,61.00
2022-08-10T20:08:58.722Z,61.60
2022-08-10T20:11:44.538Z,61.80
2022-08-10T20:14:22.461Z,62.30
2022-08-10T20:16:56.168Z,62.60
2022-08-10T20:19:53.940Z,63.30
2022-08-10T20:22:29.371Z,63.60
2022-08-10T20:25:05.118Z,64.00
2022-08-10T20:28:00.710Z,64.20
2022-08-10T20:30:33.311Z,64.70
2022-08-10T20:33:09.368Z,65.30
2022-08-10T20:35:54.017Z,65.70
2022-08-10T20:38:48.194Z,65.90
2022-08-10T20:41:33.862Z,66.10
2022-08-10T20:44:50.592Z,66.60
2022-08-10T20:47:29.342Z,66.80
2022-08-10T20:50:02.926Z,67.30
2022-08-10T20:52:31.344Z,67.30
2022-08-10T20:55:02.242Z,67.70
2022-08-10T20:57:55.890Z,67.90
2022-08-10T21:00:47.653Z,67.90
2022-08-10T21:03:31.404Z,67.90
2022-08-10T21:06:43.426Z,67.80
2022-08-10T21:09:20.393Z,67.60
2022-08-10T21:12:00.798Z,67.80
2022-08-10T21:14:42.399Z,67.60
2022-08-10T21:17:22.246Z,67.60
2022-08-10T21:20:30.648Z,67.40
2022-08-10T21:23:05.304Z,67.50
2022-08-10T21:26:10.569Z,67.60
2022-08-10T21:29:07.204Z,67.60
2022-08-10T21:31:52.821Z,67.60
2022-08-10T21:34:57.381Z,67.60
2022-08-10T21:37:57.109Z,67.50
2022-08-10T21:41:18.119Z,67.30
2022-08-10T21:44:08.274Z,67.20
2022-08-10T21:47:27.172Z,67.40
2022-08-10T21:50:25.496Z,67.50
2022-08-10T21:53:44.082Z,67.80
2022-08-10T21:56:42.809Z,68.30
2022-08-10T21:59:50.892Z,68.70
2022-08-10T22:02:50.038Z,68.90
2022-08-10T22:05:47.628Z,69.00
2022-08-10T22:08:38.619Z,69.60
2022-08-10T22:11:27.945Z,70.00
2022-08-10T22:14:16.259Z,70.30
2022-08-10T22:17:59.136Z,70.90
2022-08-10T22:20:32.804Z,71.20
2022-08-10T22:23:29.259Z,71.30
2022-08-10T22:27:00.821Z,71.30
2022-08-10T22:30:06.627Z,71.40
2022-08-10T22:33:08.314Z,71.50
2022-08-10T22:36:00.612Z,71.80
2022-08-10T22:40:10.801Z,71.80
2022-08-10T22:42:59.347Z,72.00
2022-08-10T22:45:57.316Z,72.30
2022-08-10T22:48:42.705Z,72.60
2022-08-10T22:51:20.587Z,72.80
2022-08-10T22:54:31.379Z,73.10
2022-08-10T22:57:21.513Z,73.40
2022-08-10T22:59:49.613Z,73.30
2022-08-10T23:02:28.522Z,73.50
2022-08-10T23:05:32.224Z,74.00
2022-08-10T23:08:08.521Z,74.40
2022-08-10T23:10:42.163Z,74.50
2022-08-10T23:13:36.128Z,74.60
2022-08-10T23:16:34.152Z,75.00
2022-08-10T23:19:09.925Z,75.30
2022-08-10T23:22:01.653Z,75.90
2022-08-10T23:24:35.079Z,76.00
2022-08-10T23:27:12.090Z,76.20
2022-08-10T23:30:09.397Z,76.40
2022-08-10T23:32:33.962Z,76.10
2022-08-10T23:36:31.368Z,76.40
2022-08-10T23:37:58.235Z,76.90
2022-08-10T23:40:26.991Z,77.20
2022-08-10T23:42:56.400Z,77.20
2022-08-10T23:45:52.413Z,77.50
2022-08-10T23:48:20.218Z,77.50
2022-08-10T23:50:58.204Z,77.80
2022-08-10T23:53:29.741Z,78.20
2022-08-10T23:56:00.244Z,78.30
2022-08-10T23:58:34.990Z,78.70
